Time;durP1;ratioP1;P1;durP2;ratioP2;P2;SDS_P1;SDS_P2;PMS_P1;PMS_P2;Temp;Humidity;BMP_temperature;BMP_pressure;BME280_temperature;BME280_humidity;BME280_pressure;Samples;Min_cycle;Max_cycle;Signal;HPM_P1;HPM_P2
2023/06/02 00:03:20;;;;;;;11.27;4.72;;;24.10;76.30;;;;;;11019111;32;20022;-73
2023/06/02 00:09:22;;;;;;;10.35;6.25;;;24.10;76.50;;;;;;11005618;32;20017;-73
2023/06/02 00:15:24;;;;;;;8.30;5.55;;;24.10;77.00;;;;;;11018820;32;20052;-73
2023/06/02 00:21:26;;;;;;;9.65;6.50;;;24.20;76.80;;;;;;11018721;32;20397;-73
2023/06/02 00:27:28;;;;;;;10.90;6.72;;;24.20;76.80;;;;;;11016795;32;20065;-73
2023/06/02 00:33:30;;;;;;;12.60;6.50;;;24.00;76.90;;;;;;11018427;32;20015;-73
2023/06/02 00:39:52;;;;;;;10.75;6.75;;;24.00;76.80;;;;;;11018259;32;20429;-73
2023/06/02 00:45:55;;;;;;;10.38;6.75;;;24.00;76.80;;;;;;11018015;32;20018;-73
2023/06/02 00:51:58;;;;;;;9.40;6.95;;;24.00;77.30;;;;;;11004025;32;20023;-74
2023/06/02 00:58:03;;;;;;;8.20;6.43;;;24.00;77.10;;;;;;11013778;32;20049;-74
2023/06/02 01:04:07;;;;;;;9.90;8.00;;;23.90;77.00;;;;;;11017266;32;20022;-73
2023/06/02 01:10:09;;;;;;;9.98;6.50;;;23.80;76.90;;;;;;11017646;32;20060;-73
2023/06/02 01:16:15;;;;;;;13.75;6.78;;;23.80;77.00;;;;;;11017556;32;20053;-73
2023/06/02 01:22:23;;;;;;;7.95;5.72;;;23.80;76.70;;;;;;11013375;32;20018;-73
2023/06/02 01:28:26;;;;;;;9.02;6.35;;;23.80;77.30;;;;;;11024832;32;20048;-73
2023/06/02 01:34:36;;;;;;;9.27;6.12;;;23.80;77.30;;;;;;11024704;32;20041;-73
2023/06/02 01:40:39;;;;;;;10.88;8.05;;;23.70;77.30;;;;;;11024380;32;20348;-73
2023/06/02 01:46:44;;;;;;;13.05;5.80;;;23.70;77.70;;;;;;11024154;32;20030;-73
2023/06/02 01:52:46;;;;;;;12.25;8.15;;;23.60;77.60;;;;;;11009777;32;20030;-73
2023/06/02 01:58:52;;;;;;;10.63;7.68;;;23.50;77.60;;;;;;11023952;32;20045;-73
2023/06/02 02:04:54;;;;;;;8.07;6.60;;;23.40;77.60;;;;;;11011616;32;20026;-73
2023/06/02 02:10:55;;;;;;;9.35;7.03;;;23.30;77.60;;;;;;11005022;32;20049;-73
2023/06/02 02:17:00;;;;;;;9.13;7.12;;;23.30;77.60;;;;;;11022889;32;20297;-73
2023/06/02 02:23:02;;;;;;;11.60;7.55;;;23.20;77.70;;;;;;11008545;32;20056;-73
2023/06/02 02:29:06;;;;;;;13.10;8.30;;;23.00;78.00;;;;;;11022654;32;20053;-73
2023/06/02 02:35:08;;;;;;;10.48;6.55;;;23.00;78.10;;;;;;11007631;32;20037;-73
2023/06/02 02:41:11;;;;;;;10.80;7.70;;;23.00;77.90;;;;;;11022371;32;20026;-73
2023/06/02 02:47:13;;;;;;;10.68;6.80;;;23.10;77.60;;;;;;11021953;32;20018;-73
2023/06/02 02:53:16;;;;;;;12.10;7.60;;;22.90;77.60;;;;;;11021973;32;20023;-74
2023/06/02 02:59:18;;;;;;;11.90;8.82;;;22.90;77.80;;;;;;11022389;32;20041;-74
2023/06/02 03:05:21;;;;;;;10.18;6.93;;;23.00;77.50;;;;;;11022832;32;20022;-74
2023/06/02 03:11:23;;;;;;;11.05;7.50;;;22.90;77.50;;;;;;11021356;32;20100;-73
2023/06/02 03:17:27;;;;;;;13.10;7.82;;;22.90;77.50;;;;;;11022351;32;20048;-73
2023/06/02 03:23:30;;;;;;;13.45;10.02;;;22.80;77.60;;;;;;11022072;32;20076;-73
2023/06/02 03:29:32;;;;;;;10.13;7.82;;;22.80;77.50;;;;;;11020609;32;20372;-73
2023/06/02 03:35:35;;;;;;;12.05;8.60;;;22.80;77.90;;;;;;11006314;32;20041;-73
2023/06/02 03:41:37;;;;;;;11.20;9.23;;;22.80;78.00;;;;;;11008040;32;20007;-73
2023/06/02 03:47:40;;;;;;;10.35;7.43;;;22.70;77.90;;;;;;11020177;32;20057;-73
2023/06/02 03:53:42;;;;;;;7.62;6.55;;;22.60;78.10;;;;;;11006146;32;20400;-73
2023/06/02 03:59:45;;;;;;;9.80;7.25;;;22.40;78.30;;;;;;11020162;32;20018;-73
2023/06/02 04:05:47;;;;;;;13.65;10.00;;;22.50;78.30;;;;;;11004767;32;20042;-73
2023/06/02 04:11:50;;;;;;;12.37;9.00;;;22.60;78.20;;;;;;11018779;32;20049;-73
2023/06/02 04:17:54;;;;;;;13.70;9.75;;;22.50;78.20;;;;;;11018540;32;20021;-74
2023/06/02 04:23:57;;;;;;;11.48;8.27;;;22.40;78.30;;;;;;11018353;32;20301;-74
2023/06/02 04:30:01;;;;;;;10.93;8.57;;;22.40;78.20;;;;;;11017731;32;20045;-74
2023/06/02 04:36:05;;;;;;;10.70;8.30;;;22.50;78.30;;;;;;11003110;32;20030;-73
2023/06/02 04:42:07;;;;;;;12.10;9.43;;;22.60;78.10;;;;;;11018820;32;20014;-73
2023/06/02 04:48:11;;;;;;;11.50;7.30;;;22.60;78.10;;;;;;11017084;32;20030;-73
2023/06/02 04:54:16;;;;;;;8.73;6.87;;;22.70;78.10;;;;;;11012173;32;20026;-73
2023/06/02 05:00:19;;;;;;;10.00;7.90;;;22.70;78.10;;;;;;11015527;32;20474;-74
2023/06/02 05:06:21;;;;;;;7.90;6.28;;;22.80;78.10;;;;;;11001032;32;20068;-74
2023/06/02 05:12:27;;;;;;;10.88;8.40;;;22.80;78.20;;;;;;11003712;32;20045;-74
2023/06/02 05:18:30;;;;;;;8.13;6.03;;;23.00;78.00;;;;;;11017617;32;20072;-74
2023/06/02 05:24:33;;;;;;;11.07;7.32;;;23.00;77.80;;;;;;10988481;32;20026;-74
2023/06/02 05:30:35;;;;;;;8.77;5.57;;;23.20;78.00;;;;;;11017060;32;20014;-74
2023/06/02 05:36:38;;;;;;;10.02;7.72;;;23.30;77.90;;;;;;11015318;32;20415;-74
2023/06/02 05:42:40;;;;;;;9.60;7.00;;;23.60;77.90;;;;;;11015832;32;20371;-74
2023/06/02 05:48:43;;;;;;;8.43;5.80;;;23.60;77.80;;;;;;11016421;32;20325;-75
2023/06/02 05:54:46;;;;;;;8.43;6.18;;;23.70;77.70;;;;;;11015487;32;20032;-74
2023/06/02 06:00:49;;;;;;;8.77;5.53;;;23.80;77.70;;;;;;11013995;32;20018;-75
2023/06/02 06:07:12;;;;;;;5.78;3.62;;;24.00;77.60;;;;;;11012499;32;20391;-76
2023/06/02 06:13:14;;;;;;;7.87;4.65;;;24.10;77.70;;;;;;11019030;32;20018;-75
2023/06/02 06:19:18;;;;;;;9.10;6.50;;;24.20;77.60;;;;;;11002715;32;20053;-77
2023/06/02 06:25:20;;;;;;;8.98;6.65;;;24.30;77.50;;;;;;10997142;32;20084;-75
2023/06/02 06:31:25;;;;;;;6.70;4.90;;;24.30;77.40;;;;;;10984954;32;20052;-75
2023/06/02 06:37:30;;;;;;;9.77;4.95;;;24.40;77.30;;;;;;11008509;32;20062;-74
2023/06/02 06:43:32;;;;;;;8.30;5.03;;;24.60;76.80;;;;;;10992588;32;20048;-75
2023/06/02 06:49:37;;;;;;;7.25;4.40;;;24.80;76.10;;;;;;11007245;32;20396;-74
2023/06/02 06:55:40;;;;;;;10.18;4.90;;;24.90;76.10;;;;;;11007502;32;20019;-74
2023/06/02 07:01:45;;;;;;;4.43;2.78;;;25.10;75.70;;;;;;11006242;32;20409;-75
2023/06/02 07:07:48;;;;;;;6.62;4.53;;;25.30;75.60;;;;;;11007474;32;20018;-74
2023/06/02 07:13:51;;;;;;;6.32;3.60;;;25.40;75.50;;;;;;11005919;32;20152;-74
2023/06/02 07:19:53;;;;;;;5.07;3.25;;;25.60;75.40;;;;;;11006545;32;20389;-74
2023/06/02 07:25:57;;;;;;;4.62;3.03;;;25.70;75.30;;;;;;10601250;27;11967481;-74
2023/06/02 07:32:00;;;;;;;4.05;2.75;;;25.80;74.90;;;;;;10876435;32;20092;-74
2023/06/02 07:38:02;;;;;;;5.85;2.35;;;25.90;74.80;;;;;;10890088;32;20042;-74
2023/06/02 07:44:05;;;;;;;5.37;2.70;;;26.00;74.20;;;;;;10892971;32;20027;-74
2023/06/02 07:50:07;;;;;;;6.47;3.42;;;26.20;73.80;;;;;;10897366;32;20061;-75
2023/06/02 07:56:09;;;;;;;5.30;2.75;;;26.30;72.70;;;;;;10935711;32;20208;-74
2023/06/02 08:02:12;;;;;;;3.42;2.15;;;26.40;72.10;;;;;;10936551;32;20396;-74
2023/06/02 08:08:14;;;;;;;3.95;2.70;;;26.50;71.50;;;;;;10918980;32;20046;-73
2023/06/02 08:14:16;;;;;;;4.43;2.05;;;26.60;70.60;;;;;;10971041;32;20033;-74
2023/06/02 08:20:18;;;;;;;4.85;2.75;;;26.60;68.80;;;;;;10969538;32;20018;-71
2023/06/02 08:26:44;;;;;;;4.25;2.67;;;26.60;67.40;;;;;;10940910;32;20364;-74
2023/06/02 08:32:48;;;;;;;5.05;2.47;;;26.60;67.40;;;;;;10933355;32;20409;-74
2023/06/02 08:38:51;;;;;;;4.55;3.45;;;26.70;66.60;;;;;;10932011;32;20043;-74
2023/06/02 08:44:54;;;;;;;6.50;3.37;;;26.90;66.60;;;;;;10930058;32;20023;-74
2023/06/02 08:51:03;;;;;;;8.30;3.42;;;27.00;66.00;;;;;;10931099;32;20397;-73
2023/06/02 08:57:06;;;;;;;4.32;2.65;;;27.20;65.70;;;;;;10930812;32;20011;-75
2023/06/02 09:03:12;;;;;;;3.40;2.12;;;27.20;64.70;;;;;;10919553;32;20027;-73
2023/06/02 09:09:14;;;;;;;4.55;3.00;;;27.30;64.30;;;;;;10932046;32;20037;-74
2023/06/02 09:15:16;;;;;;;5.75;3.50;;;27.30;64.40;;;;;;10930905;32;20011;-75
2023/06/02 09:21:29;;;;;;;5.82;3.17;;;27.50;63.70;;;;;;10917955;32;20049;-74
2023/06/02 09:27:31;;;;;;;4.22;2.80;;;27.70;63.40;;;;;;10931559;32;20069;-74
2023/06/02 09:33:35;;;;;;;5.28;3.60;;;27.90;62.60;;;;;;10918522;32;20030;-74
2023/06/02 09:39:41;;;;;;;4.10;2.62;;;28.00;62.60;;;;;;10933607;32;20037;-75
2023/06/02 09:45:46;;;;;;;7.07;3.70;;;28.20;62.30;;;;;;10919625;32;20074;-73
2023/06/02 09:51:50;;;;;;;4.18;2.37;;;28.10;61.40;;;;;;10933916;32;20046;-74
2023/06/02 09:57:53;;;;;;;4.68;2.72;;;28.20;61.40;;;;;;10937055;32;20019;-71
2023/06/02 10:03:55;;;;;;;8.55;2.30;;;28.30;60.80;;;;;;10932804;32;20039;-74
2023/06/02 10:10:22;;;;;;;3.70;2.65;;;28.30;60.20;;;;;;10937069;32;20011;-74
2023/06/02 10:16:44;;;;;;;7.47;3.65;;;28.50;59.50;;;;;;10937982;32;20011;-74
2023/06/02 10:23:02;;;;;;;4.53;2.87;;;28.70;58.90;;;;;;10937534;32;20018;-73
2023/06/02 10:29:05;;;;;;;7.90;5.32;;;28.80;58.60;;;;;;10936675;32;20022;-73
2023/06/02 10:35:07;;;;;;;4.50;2.62;;;29.00;59.70;;;;;;10930774;32;20078;-73
2023/06/02 10:48:56;;;;;;;5.00;3.00;;;29.10;59.00;;;;;;10934586;32;20007;-73
2023/06/02 10:55:07;;;;;;;6.18;2.72;;;29.30;59.90;;;;;;10933946;32;20027;-74
2023/06/02 11:01:09;;;;;;;11.32;4.25;;;29.50;58.60;;;;;;10936007;32;20018;-74
2023/06/02 11:07:25;;;;;;;4.57;3.10;;;29.80;57.70;;;;;;10920657;32;20153;-72
2023/06/02 11:13:28;;;;;;;6.90;3.55;;;29.90;57.00;;;;;;10931391;32;20037;-73
2023/06/02 11:19:49;;;;;;;4.93;3.10;;;30.10;56.10;;;;;;10931723;32;20098;-73
2023/06/02 11:26:01;;;;;;;7.18;3.00;;;30.30;55.90;;;;;;10916602;32;20057;-73
2023/06/02 11:32:05;;;;;;;5.22;3.40;;;30.40;54.90;;;;;;10933355;32;20027;-72
2023/06/02 11:38:08;;;;;;;11.23;3.83;;;30.60;54.10;;;;;;10930913;32;20137;-73
2023/06/02 11:44:16;;;;;;;7.45;4.03;;;30.60;54.60;;;;;;10928463;32;20050;-73
2023/06/02 11:50:19;;;;;;;3.30;2.50;;;30.80;55.00;;;;;;10927909;32;20049;-76
2023/06/02 11:56:22;;;;;;;5.45;3.00;;;31.10;53.80;;;;;;10928883;32;20020;-73
2023/06/02 12:02:25;;;;;;;6.60;4.20;;;31.30;53.20;;;;;;10925372;32;20011;-74
2023/06/02 12:08:30;;;;;;;5.50;4.07;;;31.40;52.70;;;;;;10929156;32;20419;-73
2023/06/02 12:14:38;;;;;;;6.93;3.53;;;31.40;52.20;;;;;;10928010;32;20011;-73
2023/06/02 12:20:53;;;;;;;10.05;3.90;;;31.40;52.20;;;;;;10929622;32;20427;-72
2023/06/02 12:26:55;;;;;;;5.05;3.00;;;31.60;51.50;;;;;;10927897;32;20042;-74
2023/06/02 12:33:11;;;;;;;5.57;3.22;;;31.60;50.60;;;;;;10929362;32;20023;-73
2023/06/02 12:39:51;;;;;;;7.65;3.72;;;31.50;50.30;;;;;;10931001;32;20034;-73
2023/06/02 12:45:53;;;;;;;3.17;2.15;;;31.50;50.70;;;;;;10930903;32;20328;-74
2023/06/02 12:51:55;;;;;;;8.43;3.65;;;31.40;50.70;;;;;;10930832;32;20309;-74
2023/06/02 12:58:18;;;;;;;5.18;3.22;;;31.50;50.10;;;;;;10929809;32;20057;-74
2023/06/02 13:04:21;;;;;;;4.50;3.00;;;31.10;50.40;;;;;;10927973;32;20443;-73
2023/06/02 13:10:45;;;;;;;7.70;4.40;;;30.50;51.70;;;;;;10930251;32;20046;-72
2023/06/02 13:16:57;;;;;;;4.85;2.92;;;30.30;51.70;;;;;;10932496;32;20019;-73
2023/06/02 13:22:59;;;;;;;5.53;3.97;;;30.40;52.00;;;;;;10938421;32;20058;-74
2023/06/02 13:29:01;;;;;;;4.40;2.90;;;30.40;52.10;;;;;;10938442;32;20022;-74
2023/06/02 13:35:03;;;;;;;4.97;3.72;;;30.60;51.50;;;;;;10939937;32;20019;-73
2023/06/02 13:41:05;;;;;;;6.10;3.58;;;30.80;52.30;;;;;;10939426;32;20023;-73
2023/06/02 13:47:07;;;;;;;7.28;3.60;;;30.80;51.80;;;;;;10925045;32;20045;-73
2023/06/02 13:53:09;;;;;;;7.65;4.40;;;30.80;51.30;;;;;;10936348;32;20019;-73
2023/06/02 13:59:12;;;;;;;5.57;3.30;;;30.90;50.90;;;;;;10933174;32;20031;-73
2023/06/02 14:05:14;;;;;;;7.90;4.10;;;30.90;51.00;;;;;;10936591;32;20045;-73
2023/06/02 14:11:16;;;;;;;6.85;4.32;;;31.00;50.50;;;;;;10930028;32;20053;-71
2023/06/02 14:17:18;;;;;;;6.20;3.40;;;31.10;49.90;;;;;;10934849;32;20061;-75
2023/06/02 14:23:21;;;;;;;7.40;2.85;;;30.90;49.60;;;;;;10919588;32;20035;-73
2023/06/02 14:29:45;;;;;;;8.10;4.22;;;31.00;50.00;;;;;;10912912;32;20039;-73
2023/06/02 14:35:48;;;;;;;4.25;2.60;;;31.00;49.80;;;;;;10931253;32;20014;-73
2023/06/02 14:41:50;;;;;;;5.28;3.72;;;30.70;51.20;;;;;;10928298;32;20022;-74
2023/06/02 14:47:52;;;;;;;6.07;3.33;;;30.50;51.10;;;;;;10933554;32;20031;-74
2023/06/02 14:53:55;;;;;;;5.03;3.97;;;30.30;51.30;;;;;;10932282;32;20046;-74
2023/06/02 14:59:57;;;;;;;9.15;3.83;;;30.10;52.60;;;;;;10931283;32;20027;-73
2023/06/02 15:06:00;;;;;;;10.38;3.58;;;30.00;53.20;;;;;;10932002;32;20137;-73
2023/06/02 15:12:03;;;;;;;4.75;3.33;;;30.00;53.30;;;;;;10931760;32;20074;-74
2023/06/02 15:18:05;;;;;;;9.80;4.57;;;30.10;52.90;;;;;;10927350;32;20023;-74
2023/06/02 15:24:07;;;;;;;5.43;3.22;;;30.30;52.50;;;;;;10935910;27;20369;-74
2023/06/02 15:30:10;;;;;;;13.77;4.30;;;30.20;53.00;;;;;;10927557;32;20069;-71
2023/06/02 15:36:13;;;;;;;6.85;3.47;;;30.30;53.10;;;;;;10931698;32;20050;-74
2023/06/02 15:42:15;;;;;;;7.62;2.33;;;30.30;52.80;;;;;;10929698;32;20042;-74
2023/06/02 15:48:17;;;;;;;4.07;2.80;;;30.50;52.70;;;;;;10915368;32;20050;-74
2023/06/02 15:54:19;;;;;;;6.15;3.08;;;30.60;52.40;;;;;;10927961;32;20045;-74
2023/06/02 16:00:21;;;;;;;4.37;3.12;;;30.60;52.40;;;;;;10916741;32;20066;-75
2023/06/02 16:06:23;;;;;;;5.78;2.92;;;30.60;52.40;;;;;;10928588;32;20157;-74
2023/06/02 16:12:26;;;;;;;7.57;3.40;;;30.70;52.20;;;;;;10929723;32;20043;-74
2023/06/02 16:18:50;;;;;;;3.62;2.17;;;30.80;52.30;;;;;;10930228;32;20325;-75
2023/06/02 16:24:52;;;;;;;4.28;2.65;;;30.80;52.40;;;;;;10905248;32;20066;-74
2023/06/02 16:31:00;;;;;;;3.85;2.67;;;30.70;52.40;;;;;;10931281;32;20031;-73
2023/06/02 16:37:02;;;;;;;6.90;3.60;;;30.60;52.40;;;;;;10932855;32;20084;-73
2023/06/02 16:43:04;;;;;;;5.25;2.87;;;30.60;52.30;;;;;;10916184;32;20027;-74
2023/06/02 16:49:09;;;;;;;6.20;3.00;;;30.50;52.40;;;;;;10892102;32;20011;-74
2023/06/02 16:55:11;;;;;;;4.37;3.03;;;30.40;52.30;;;;;;10893698;32;20115;-74
2023/06/02 17:01:13;;;;;;;6.78;3.50;;;30.30;52.50;;;;;;10877350;32;20134;-73
2023/06/02 17:07:15;;;;;;;5.50;3.22;;;30.30;52.60;;;;;;10917905;32;20045;-73
2023/06/02 17:13:17;;;;;;;4.55;3.15;;;30.20;52.70;;;;;;10931651;32;20431;-73
2023/06/02 17:19:38;;;;;;;4.87;2.47;;;30.10;53.10;;;;;;10930335;32;20023;-73
2023/06/02 17:25:41;;;;;;;5.05;2.80;;;30.00;53.20;;;;;;10931734;32;20049;-73
2023/06/02 17:31:43;;;;;;;4.80;2.90;;;29.90;53.40;;;;;;10916848;32;20045;-72
2023/06/02 17:37:45;;;;;;;3.55;2.40;;;29.80;53.70;;;;;;10922337;32;20474;-73
2023/06/02 17:43:49;;;;;;;4.75;2.85;;;29.80;53.70;;;;;;10921113;32;20027;-73
2023/06/02 17:49:51;;;;;;;5.53;2.97;;;29.80;53.90;;;;;;10932557;32;20337;-73
2023/06/02 17:55:53;;;;;;;5.10;2.78;;;30.10;53.20;;;;;;10929044;32;20105;-73
2023/06/02 18:01:55;;;;;;;2.53;2.08;;;29.90;53.50;;;;;;10905952;32;20054;-75
2023/06/02 18:07:57;;;;;;;6.28;2.78;;;29.60;58.50;;;;;;10934271;32;20023;-73
2023/06/02 18:14:02;;;;;;;3.00;1.83;;;29.10;62.70;;;;;;10944501;32;20345;-73
2023/06/02 18:20:04;;;;;;;2.90;1.65;;;28.70;63.20;;;;;;10943408;32;20050;-73
2023/06/02 18:26:07;;;;;;;3.92;1.95;;;28.50;64.60;;;;;;10931241;32;20283;-74
2023/06/02 18:32:09;;;;;;;2.75;1.67;;;28.30;65.20;;;;;;10929983;32;20027;-74
2023/06/02 18:38:11;;;;;;;3.33;1.92;;;28.00;65.50;;;;;;10930070;32;20455;-74
2023/06/02 18:44:26;;;;;;;3.00;1.77;;;27.80;66.20;;;;;;10945895;32;20389;-74
2023/06/02 18:50:29;;;;;;;4.40;2.03;;;27.60;65.90;;;;;;10943571;32;20059;-74
2023/06/02 18:56:31;;;;;;;4.07;1.95;;;27.40;66.50;;;;;;10945005;32;20038;-74
2023/06/02 19:02:33;;;;;;;5.28;2.20;;;27.40;66.90;;;;;;10945037;32;20022;-74
2023/06/02 19:08:36;;;;;;;2.15;1.50;;;27.20;67.10;;;;;;10944630;32;20023;-74
2023/06/02 19:14:38;;;;;;;3.40;2.10;;;27.10;68.00;;;;;;10944627;32;20065;-74
2023/06/02 19:20:40;;;;;;;4.93;1.75;;;27.00;68.70;;;;;;10943685;32;20019;-74
2023/06/02 19:26:43;;;;;;;2.53;1.23;;;27.00;68.70;;;;;;10928616;32;20070;-74
2023/06/02 19:32:46;;;;;;;3.65;2.33;;;26.90;68.60;;;;;;10942507;32;20019;-73
2023/06/02 19:38:48;;;;;;;3.90;2.22;;;26.90;69.40;;;;;;10939182;32;20053;-74
2023/06/02 19:44:50;;;;;;;4.37;1.70;;;26.80;70.20;;;;;;10934596;32;20026;-72
2023/06/02 19:50:52;;;;;;;4.22;1.60;;;26.70;70.60;;;;;;10941857;32;20085;-73
2023/06/02 19:56:54;;;;;;;2.33;1.52;;;26.50;70.80;;;;;;10942697;32;20096;-73
2023/06/02 20:02:57;;;;;;;3.95;2.00;;;26.30;70.90;;;;;;10942498;32;20042;-73
2023/06/02 20:09:00;;;;;;;4.70;2.87;;;26.30;71.00;;;;;;10912535;32;20027;-73
2023/06/02 20:15:06;;;;;;;3.50;2.03;;;26.30;71.00;;;;;;10904307;32;20020;-73
2023/06/02 20:21:08;;;;;;;3.55;2.42;;;26.30;71.80;;;;;;10889591;32;20026;-73
2023/06/02 20:27:11;;;;;;;3.47;2.20;;;26.20;71.70;;;;;;10941375;32;20053;-73
2023/06/02 20:33:13;;;;;;;7.45;3.12;;;26.20;71.90;;;;;;10941959;32;20027;-74
2023/06/02 20:39:15;;;;;;;2.70;1.77;;;26.30;72.20;;;;;;10941120;32;20027;-74
2023/06/02 20:45:19;;;;;;;4.12;1.73;;;26.30;72.20;;;;;;10937654;32;20047;-74
2023/06/02 20:51:21;;;;;;;5.57;2.10;;;26.20;72.50;;;;;;10941662;32;20027;-73
2023/06/02 20:57:23;;;;;;;2.60;1.85;;;26.20;73.10;;;;;;10924366;32;20038;-73
2023/06/02 21:03:25;;;;;;;1.85;1.27;;;26.10;73.80;;;;;;10941301;32;20396;-73
2023/06/02 21:09:27;;;;;;;2.50;1.85;;;26.20;74.00;;;;;;10941707;32;20041;-73
2023/06/02 21:15:29;;;;;;;2.97;1.85;;;26.30;74.60;;;;;;10940609;32;20018;-74
2023/06/02 21:21:32;;;;;;;3.15;1.55;;;26.20;75.30;;;;;;10941410;32;20046;-74
2023/06/02 21:27:34;;;;;;;3.10;1.50;;;26.10;75.40;;;;;;10941170;32;20050;-73
2023/06/02 21:33:36;;;;;;;2.55;1.50;;;26.10;75.30;;;;;;10936268;32;20031;-73
2023/06/02 21:39:38;;;;;;;2.47;1.55;;;26.10;75.40;;;;;;10941461;32;20065;-73
2023/06/02 21:45:40;;;;;;;2.30;1.30;;;26.10;75.90;;;;;;10948516;32;20061;-73
2023/06/02 21:51:42;;;;;;;1.55;1.12;;;26.10;76.00;;;;;;10948352;32;20042;-74
2023/06/02 21:57:44;;;;;;;1.62;1.23;;;26.00;75.60;;;;;;10947850;32;20034;-74
2023/06/02 22:03:46;;;;;;;2.22;1.20;;;26.00;75.40;;;;;;10947759;32;20393;-73
2023/06/02 22:09:49;;;;;;;3.03;1.77;;;26.00;75.70;;;;;;10943596;32;20026;-73
2023/06/02 22:15:51;;;;;;;3.83;1.37;;;25.90;76.70;;;;;;10947378;32;20024;-73
2023/06/02 22:21:53;;;;;;;5.65;1.98;;;25.90;76.80;;;;;;10946821;32;20019;-73
2023/06/02 22:27:55;;;;;;;2.17;1.40;;;25.90;76.50;;;;;;10946468;32;20053;-74
2023/06/02 22:33:57;;;;;;;4.00;1.65;;;25.90;76.40;;;;;;10946780;32;20348;-73
2023/06/02 22:39:59;;;;;;;5.25;1.60;;;25.90;76.70;;;;;;10946509;32;20023;-73
2023/06/02 22:46:01;;;;;;;3.00;1.55;;;25.80;77.20;;;;;;10942422;32;20053;-73
2023/06/02 22:52:04;;;;;;;3.53;1.75;;;25.80;77.00;;;;;;10946624;32;20385;-73
2023/06/02 22:58:05;;;;;;;2.22;1.37;;;25.80;76.80;;;;;;10946722;32;20010;-73
2023/06/02 23:04:07;;;;;;;3.58;1.73;;;25.80;76.70;;;;;;10947285;32;20338;-73
2023/06/02 23:10:14;;;;;;;1.27;1.05;;;25.80;76.60;;;;;;10945648;32;20027;-73
2023/06/02 23:16:16;;;;;;;3.05;1.45;;;25.70;76.30;;;;;;10931624;32;20034;-74
2023/06/02 23:22:18;;;;;;;3.25;2.22;;;25.70;75.90;;;;;;10946297;32;20019;-73
2023/06/02 23:28:20;;;;;;;5.22;1.98;;;25.60;76.20;;;;;;10974372;27;20030;-73
2023/06/02 23:34:22;;;;;;;2.95;1.65;;;25.50;76.60;;;;;;10983256;32;20018;-73
2023/06/02 23:40:23;;;;;;;3.45;1.87;;;25.40;77.20;;;;;;10982271;32;20010;-73
2023/06/02 23:46:25;;;;;;;5.62;2.05;;;25.40;77.30;;;;;;10969065;32;20061;-73
2023/06/02 23:52:27;;;;;;;2.85;1.65;;;25.30;77.00;;;;;;10982940;32;20340;-74
2023/06/02 23:58:29;;;;;;;2.87;2.10;;;25.30;76.90;;;;;;10969161;32;20014;-74
